Sparta, Indiana
Current Conditions -  °F | °C
As of 7:53 AM on Tuesday 21 Oct 2014 (Local Time) from KGSH Reporting Station
Overcast Overcast  
Wind Chill: 41°   Ceiling: 6000
Heat Index: 46°   Visibility: 10mi
Dew Point: 41°   Wind: 12mph
Humidity: 83%   Direction: 340°NNW
Pressure: 30.02"   Gusts: NA
Location:  41.3805°N, 85.517°W
Report Text: KGSH 211153Z AUTO 34010KT 10SM FEW019 OVC060 08/05 A3002 RMK AO2 SLP168 7//// T00780050 10094 20078 51018
Loading
Personal Weather Stations






























Interactive Weather Map
Tropical Storm Tracking
New forecast layout! Learn more

10-Day Weather Forecast

Advertisements
Track Severe Weather on mobile